X  Fechar Metar - Info de Aeroporto     LBPD Plovdiv International Airport
Temperatura
97°F Temperatura
55°F Ptº Orvalho
25% Humidade



Vento
6 MPH
10 KM/H
3 M/S
5 NÓS



10°
N
Condições Atuais

Encoberto Encoberto
Pressão 1012.87 (hPa) - 29.91 (inHg)
Visibilidade 6 (milha) - 9.7 (km)
Aeroporto
Código-Aeropoto LBPD

Localização: Plovdiv International Airport
Distância: 14 (mi)

Metar:
LBPD 181730Z AUTO 01005KT 330V050 9999 OVC110/// 36/13 Q1013 NOSIG

Hora: 18-07-2024 20:30 EEST